METAR Formatted Surface Weather Observation
Issued by NWS

Home | Current Version | Previous Version | Text Only | Print | Product List | Glossary On
Versions: 1 2 3 4 5 6 7 8 9 10 11 12 13 14 15
959
SAUS44 KCRP 280003 COR
MTRNGP
METAR KNGP 272356Z AUTO 11010KT 10SM CLR 31/24 A2988 RMK AO2 SLP119
60000 T03060239 10322 20283 53001 $



USA.gov is the U.S. government's official web portal to all federal, state and local government web resources and services.